createdAt,value
2018-07-31T00:00:19.053Z,1013.34
2018-07-31T00:01:19.041Z,1013.37
2018-07-31T00:02:19.032Z,1013.38
2018-07-31T00:03:19.023Z,1013.39
2018-07-31T00:04:19.010Z,1013.35
2018-07-31T00:05:19.001Z,1013.36
2018-07-31T00:06:18.991Z,1013.34
2018-07-31T00:07:18.980Z,1013.38
2018-07-31T00:08:18.972Z,1013.37
2018-07-31T00:09:18.961Z,1013.40
2018-07-31T00:10:18.955Z,1013.36
2018-07-31T00:11:18.944Z,1013.38
2018-07-31T00:12:18.931Z,1013.40
2018-07-31T00:13:18.921Z,1013.39
2018-07-31T00:14:18.912Z,1013.40
2018-07-31T00:15:18.901Z,1013.38
2018-07-31T00:16:18.893Z,1013.38
2018-07-31T00:17:18.883Z,1013.39
2018-07-31T00:18:18.868Z,1013.40
2018-07-31T00:19:18.859Z,1013.37
2018-07-31T00:20:18.870Z,1013.43
2018-07-31T00:21:18.837Z,1013.39
2018-07-31T00:22:18.830Z,1013.38
2018-07-31T00:23:18.820Z,1013.39
2018-07-31T00:24:18.808Z,1013.38
2018-07-31T00:25:18.800Z,1013.39
2018-07-31T00:26:18.786Z,1013.34
2018-07-31T00:27:18.777Z,1013.37
2018-07-31T00:28:18.765Z,1013.38
2018-07-31T00:29:18.754Z,1013.41
2018-07-31T00:30:18.747Z,1013.37
2018-07-31T00:31:18.745Z,1013.37
2018-07-31T00:32:18.726Z,1013.42
2018-07-31T00:33:18.715Z,1013.37
2018-07-31T00:34:18.705Z,1013.34
2018-07-31T00:35:18.693Z,1013.35
2018-07-31T00:36:18.686Z,1013.34
2018-07-31T00:37:18.673Z,1013.38
2018-07-31T00:38:18.662Z,1013.34
2018-07-31T00:39:18.653Z,1013.37
2018-07-31T00:40:18.642Z,1013.38
2018-07-31T00:41:18.635Z,1013.39
2018-07-31T00:42:18.622Z,1013.40
2018-07-31T00:43:18.611Z,1013.42
2018-07-31T00:44:18.602Z,1013.42
2018-07-31T00:45:18.589Z,1013.41
2018-07-31T00:46:18.584Z,1013.36
2018-07-31T00:47:18.569Z,1013.41
2018-07-31T00:48:18.559Z,1013.35
2018-07-31T00:49:18.553Z,1013.35
2018-07-31T00:50:18.536Z,1013.33
2018-07-31T00:51:18.528Z,1013.31
2018-07-31T00:52:18.519Z,1013.27
2018-07-31T00:53:18.505Z,1013.28
2018-07-31T00:54:18.495Z,1013.25
2018-07-31T00:55:18.487Z,1013.25
2018-07-31T00:56:18.475Z,1013.24
2018-07-31T00:57:18.463Z,1013.22
2018-07-31T00:58:18.453Z,1013.22
2018-07-31T00:59:18.443Z,1013.21
2018-07-31T01:00:18.432Z,1013.19
2018-07-31T01:01:18.420Z,1013.16
2018-07-31T01:02:18.410Z,1013.14
2018-07-31T01:03:18.401Z,1013.15
2018-07-31T01:04:18.439Z,1013.15
2018-07-31T01:05:18.380Z,1013.14
2018-07-31T01:06:18.367Z,1013.10
2018-07-31T01:07:18.357Z,1013.12
2018-07-31T01:08:18.346Z,1013.11
2018-07-31T01:09:18.336Z,1013.11
2018-07-31T01:10:18.331Z,1013.12
2018-07-31T01:11:18.313Z,1013.10
2018-07-31T01:12:18.304Z,1013.11
2018-07-31T01:13:18.291Z,1013.10
2018-07-31T01:14:18.289Z,1013.13
2018-07-31T01:15:18.286Z,1013.11
2018-07-31T01:16:18.260Z,1013.13
2018-07-31T01:17:18.247Z,1013.15
2018-07-31T01:18:18.237Z,1013.15
2018-07-31T01:19:18.226Z,1013.14
2018-07-31T01:20:18.217Z,1013.15
2018-07-31T01:21:18.204Z,1013.12
2018-07-31T01:22:18.195Z,1013.15
2018-07-31T01:23:18.183Z,1013.10
2018-07-31T01:24:18.173Z,1013.13
2018-07-31T01:25:18.162Z,1013.16
2018-07-31T01:26:18.151Z,1013.14
2018-07-31T01:27:18.143Z,1013.12
2018-07-31T01:28:18.133Z,1013.11
2018-07-31T01:29:18.118Z,1013.11
2018-07-31T01:30:18.107Z,1013.12
2018-07-31T01:31:18.097Z,1013.12
2018-07-31T01:32:18.088Z,1013.16
2018-07-31T01:33:18.073Z,1013.13
2018-07-31T01:34:18.067Z,1013.09
2018-07-31T01:35:18.057Z,1013.14
2018-07-31T01:36:18.040Z,1013.18
2018-07-31T01:37:18.030Z,1013.13
2018-07-31T01:38:18.021Z,1013.12
2018-07-31T01:39:18.007Z,1013.11
2018-07-31T01:40:17.999Z,1013.08
2018-07-31T01:41:17.985Z,1013.06
2018-07-31T01:42:17.976Z,1013.04
2018-07-31T01:43:17.965Z,1013.09
2018-07-31T01:44:17.955Z,1013.04
2018-07-31T01:45:17.940Z,1013.01
2018-07-31T01:46:17.934Z,1013.03
2018-07-31T01:47:17.920Z,1013.03
2018-07-31T01:48:17.909Z,1013.02
2018-07-31T01:49:17.901Z,1013.00
2018-07-31T01:50:17.887Z,1013.04
2018-07-31T01:51:17.875Z,1013.01
2018-07-31T01:52:17.866Z,1012.99
2018-07-31T01:53:17.862Z,1012.94
2018-07-31T01:54:17.841Z,1012.96
2018-07-31T01:55:17.838Z,1012.96
2018-07-31T01:56:17.825Z,1012.95
2018-07-31T01:57:17.809Z,1012.92
2018-07-31T01:58:17.797Z,1012.92
2018-07-31T01:59:17.787Z,1012.94
2018-07-31T02:00:17.774Z,1012.91
2018-07-31T02:01:17.764Z,1012.88
2018-07-31T02:02:17.763Z,1012.90
2018-07-31T02:03:17.747Z,1012.87
2018-07-31T02:04:17.733Z,1012.86
2018-07-31T02:05:17.724Z,1012.90
2018-07-31T02:06:17.829Z,1012.89
2018-07-31T02:07:17.698Z,1012.88
2018-07-31T02:08:17.685Z,1012.86
2018-07-31T02:09:17.702Z,1012.83
2018-07-31T02:10:17.664Z,1012.84
2018-07-31T02:11:17.653Z,1012.82
2018-07-31T02:12:17.641Z,1012.82
2018-07-31T02:13:17.630Z,1012.82
2018-07-31T02:14:17.619Z,1012.83
2018-07-31T02:15:17.608Z,1012.80
2018-07-31T02:16:17.597Z,1012.85
2018-07-31T02:17:17.597Z,1012.80
2018-07-31T02:18:17.573Z,1012.80
2018-07-31T02:19:17.562Z,1012.80
2018-07-31T02:20:17.551Z,1012.78
2018-07-31T02:21:17.539Z,1012.76
2018-07-31T02:22:17.528Z,1012.76
2018-07-31T02:23:17.517Z,1012.75
2018-07-31T02:24:17.505Z,1012.74
2018-07-31T02:25:17.493Z,1012.72
2018-07-31T02:26:17.480Z,1012.70
2018-07-31T02:27:17.471Z,1012.66
2018-07-31T02:28:17.563Z,1012.66
2018-07-31T02:29:17.447Z,1012.67
2018-07-31T02:30:17.435Z,1012.68
2018-07-31T02:31:17.425Z,1012.68
2018-07-31T02:32:17.413Z,1012.70
2018-07-31T02:33:17.401Z,1012.68
2018-07-31T02:34:17.392Z,1012.67
2018-07-31T02:35:17.386Z,1012.67
2018-07-31T02:36:17.370Z,1012.70
2018-07-31T02:37:17.356Z,1012.71
2018-07-31T02:38:17.345Z,1012.71
2018-07-31T02:39:17.332Z,1012.74
2018-07-31T02:40:17.323Z,1012.72
2018-07-31T02:41:17.311Z,1012.75
2018-07-31T02:42:17.311Z,1012.74
2018-07-31T02:43:17.297Z,1012.76
2018-07-31T02:44:17.277Z,1012.78
2018-07-31T02:45:17.267Z,1012.77
2018-07-31T02:46:17.254Z,1012.80
2018-07-31T02:47:17.243Z,1012.85
2018-07-31T02:48:17.231Z,1012.85
2018-07-31T02:49:17.224Z,1012.82
2018-07-31T02:50:17.207Z,1012.84
2018-07-31T02:51:17.201Z,1012.81
2018-07-31T02:52:17.185Z,1012.85
2018-07-31T02:53:17.176Z,1012.83
2018-07-31T02:54:17.161Z,1012.86
2018-07-31T02:55:17.149Z,1012.84
2018-07-31T02:56:17.140Z,1012.86
2018-07-31T02:57:17.128Z,1012.84
2018-07-31T02:58:17.144Z,1012.84
2018-07-31T02:59:17.103Z,1012.89
2018-07-31T03:00:17.093Z,1012.89
2018-07-31T03:01:17.081Z,1012.88
2018-07-31T03:02:17.071Z,1012.84
2018-07-31T03:03:17.057Z,1012.89
2018-07-31T03:04:17.048Z,1012.88
2018-07-31T03:05:17.036Z,1012.89
2018-07-31T03:06:17.048Z,1012.85
2018-07-31T03:07:17.011Z,1012.88
2018-07-31T03:08:17.066Z,1012.86
2018-07-31T03:09:16.989Z,1012.88
2018-07-31T03:10:16.975Z,1012.87
2018-07-31T03:11:16.967Z,1012.86
2018-07-31T03:12:16.957Z,1012.88
2018-07-31T03:13:16.943Z,1012.89
2018-07-31T03:14:16.930Z,1012.90
2018-07-31T03:15:16.918Z,1012.90
2018-07-31T03:16:16.910Z,1012.92
2018-07-31T03:17:16.893Z,1012.89
2018-07-31T03:18:16.885Z,1012.89
2018-07-31T03:19:16.869Z,1012.91
2018-07-31T03:20:16.860Z,1012.91
2018-07-31T03:21:16.850Z,1012.87
2018-07-31T03:22:16.840Z,1012.93
2018-07-31T03:23:16.823Z,1012.90
2018-07-31T03:24:16.812Z,1012.91
2018-07-31T03:25:16.804Z,1012.92
2018-07-31T03:26:16.793Z,1012.95
2018-07-31T03:27:16.778Z,1012.92
2018-07-31T03:28:16.775Z,1012.92
2018-07-31T03:29:16.752Z,1012.90
2018-07-31T03:30:16.743Z,1012.91
2018-07-31T03:31:16.734Z,1012.87
2018-07-31T03:32:16.725Z,1012.91
2018-07-31T03:33:16.706Z,1012.85
2018-07-31T03:34:16.695Z,1012.87
2018-07-31T03:35:16.684Z,1012.86
2018-07-31T03:36:16.673Z,1012.87
2018-07-31T03:37:16.660Z,1012.90
2018-07-31T03:38:16.654Z,1012.90
2018-07-31T03:39:16.635Z,1012.92
2018-07-31T03:40:16.624Z,1012.92
2018-07-31T03:41:16.612Z,1012.93
2018-07-31T03:42:16.600Z,1012.94
2018-07-31T03:43:16.589Z,1012.93
2018-07-31T03:44:16.578Z,1012.96
2018-07-31T03:45:16.565Z,1012.93
2018-07-31T03:46:16.552Z,1012.98
2018-07-31T03:47:16.541Z,1012.92
2018-07-31T03:48:16.531Z,1012.93
2018-07-31T03:49:16.518Z,1012.92
2018-07-31T03:50:16.508Z,1012.92
2018-07-31T03:51:16.496Z,1012.90
2018-07-31T03:52:16.482Z,1012.92
2018-07-31T03:53:16.470Z,1012.91
2018-07-31T03:54:16.462Z,1012.92
2018-07-31T03:55:16.446Z,1012.98
2018-07-31T03:56:16.465Z,1012.94
2018-07-31T03:57:16.421Z,1012.96
2018-07-31T03:58:16.410Z,1012.97
2018-07-31T03:59:16.403Z,1012.95
2018-07-31T04:00:16.389Z,1012.92
2018-07-31T04:01:16.379Z,1012.95
2018-07-31T04:02:16.365Z,1012.94
2018-07-31T04:03:16.351Z,1012.92
2018-07-31T04:04:16.339Z,1012.96
2018-07-31T04:05:16.326Z,1013.00
2018-07-31T04:06:16.315Z,1012.99
2018-07-31T04:07:16.308Z,1012.95
2018-07-31T04:08:16.292Z,1012.95
2018-07-31T04:09:16.279Z,1012.95
2018-07-31T04:10:16.269Z,1012.96
2018-07-31T04:11:16.256Z,1012.94
2018-07-31T04:12:16.245Z,1012.97
2018-07-31T04:13:16.232Z,1013.00
2018-07-31T04:14:16.219Z,1012.98
2018-07-31T04:15:16.209Z,1012.98
2018-07-31T04:16:16.208Z,1012.99
2018-07-31T04:17:16.230Z,1013.00
2018-07-31T04:18:16.172Z,1013.02
2018-07-31T04:19:16.165Z,1013.01
2018-07-31T04:20:16.202Z,1012.96
2018-07-31T04:21:16.141Z,1013.02
2018-07-31T04:22:16.132Z,1013.04
2018-07-31T04:23:16.113Z,1013.02
2018-07-31T04:24:16.103Z,1013.03
2018-07-31T04:25:16.098Z,1013.02
2018-07-31T04:26:16.079Z,1013.01
2018-07-31T04:27:16.067Z,1013.04
2018-07-31T04:28:16.060Z,1013.01
2018-07-31T04:29:16.041Z,1013.02
2018-07-31T04:30:16.033Z,1013.01
2018-07-31T04:31:16.019Z,1012.99
2018-07-31T04:32:16.008Z,1013.02
2018-07-31T04:33:15.995Z,1013.01
2018-07-31T04:34:15.982Z,1013.02
2018-07-31T04:35:15.971Z,1013.03
2018-07-31T04:36:15.970Z,1012.98
2018-07-31T04:37:15.945Z,1013.00
2018-07-31T04:38:15.937Z,1012.94
2018-07-31T04:39:15.923Z,1012.98
2018-07-31T04:40:15.912Z,1012.99
2018-07-31T04:41:15.915Z,1012.97
2018-07-31T04:42:15.951Z,1012.99
2018-07-31T04:43:15.878Z,1012.99
2018-07-31T04:44:15.864Z,1013.03
2018-07-31T04:45:15.856Z,1013.01
2018-07-31T04:46:15.844Z,1013.04
2018-07-31T04:47:15.827Z,1013.03
2018-07-31T04:48:15.816Z,1013.05
2018-07-31T04:49:15.803Z,1013.02
2018-07-31T04:50:15.808Z,1013.00
2018-07-31T04:51:15.782Z,1012.99
2018-07-31T04:52:15.768Z,1012.92
2018-07-31T04:53:15.756Z,1012.93
2018-07-31T04:54:15.753Z,1012.94
2018-07-31T04:55:15.733Z,1012.97
2018-07-31T04:56:15.728Z,1012.94
2018-07-31T04:57:15.709Z,1012.92
2018-07-31T04:58:15.698Z,1012.95
2018-07-31T04:59:15.687Z,1012.96
2018-07-31T05:00:15.677Z,1012.94
2018-07-31T05:01:15.663Z,1012.91
2018-07-31T05:02:15.657Z,1012.90
2018-07-31T05:03:15.638Z,1012.94
2018-07-31T05:04:15.646Z,1012.92
2018-07-31T05:05:15.614Z,1012.94
2018-07-31T05:06:15.605Z,1012.93
2018-07-31T05:07:15.591Z,1012.96
2018-07-31T05:08:15.581Z,1012.96
2018-07-31T05:09:15.568Z,1012.98
2018-07-31T05:10:15.561Z,1012.96
2018-07-31T05:11:15.546Z,1012.99
2018-07-31T05:12:15.534Z,1012.96
2018-07-31T05:13:15.522Z,1012.99
2018-07-31T05:14:15.517Z,1012.98
2018-07-31T05:15:15.501Z,1013.01
2018-07-31T05:16:15.485Z,1012.96
2018-07-31T05:17:15.475Z,1012.95
2018-07-31T05:18:15.470Z,1012.98
2018-07-31T05:19:15.496Z,1012.99
2018-07-31T05:20:15.440Z,1012.97
2018-07-31T05:21:15.431Z,1013.00
2018-07-31T05:22:15.418Z,1013.00
2018-07-31T05:23:15.408Z,1012.97
2018-07-31T05:24:15.395Z,1012.95
2018-07-31T05:25:15.399Z,1012.96
2018-07-31T05:26:15.371Z,1012.96
2018-07-31T05:27:15.358Z,1012.90
2018-07-31T05:28:15.354Z,1012.95
2018-07-31T05:29:15.336Z,1012.96
2018-07-31T05:30:15.325Z,1012.98
2018-07-31T05:31:15.313Z,1012.95
2018-07-31T05:32:15.303Z,1012.97
2018-07-31T05:33:15.289Z,1012.96
2018-07-31T05:34:15.283Z,1013.03
2018-07-31T05:35:15.268Z,1013.02
2018-07-31T05:36:15.255Z,1013.01
2018-07-31T05:37:15.245Z,1013.05
2018-07-31T05:38:15.233Z,1013.06
2018-07-31T05:39:15.222Z,1013.03
2018-07-31T05:40:15.211Z,1013.04
2018-07-31T05:41:15.198Z,1013.03
2018-07-31T05:42:15.187Z,1013.03
2018-07-31T05:43:15.175Z,1013.05
2018-07-31T05:44:15.164Z,1013.04
2018-07-31T05:45:15.155Z,1013.06
2018-07-31T05:46:15.195Z,1013.03
2018-07-31T05:47:15.131Z,1013.06
2018-07-31T05:48:15.119Z,1013.03
2018-07-31T05:49:15.108Z,1013.02
2018-07-31T05:50:15.100Z,1013.07
2018-07-31T05:51:15.086Z,1013.09
2018-07-31T05:52:15.074Z,1013.07
2018-07-31T05:53:15.062Z,1013.05
2018-07-31T05:54:15.053Z,1013.06
2018-07-31T05:55:15.040Z,1013.05
2018-07-31T05:56:15.037Z,1013.10
2018-07-31T05:57:15.022Z,1013.08
2018-07-31T05:58:15.005Z,1013.07
2018-07-31T05:59:14.995Z,1013.11
2018-07-31T06:00:14.989Z,1013.07
2018-07-31T06:01:14.973Z,1013.12
2018-07-31T06:02:14.963Z,1013.12
2018-07-31T06:03:14.954Z,1013.10
2018-07-31T06:04:14.940Z,1013.09
2018-07-31T06:05:14.930Z,1013.11
2018-07-31T06:06:14.919Z,1013.12
2018-07-31T06:07:14.905Z,1013.14
2018-07-31T06:08:14.895Z,1013.10
2018-07-31T06:09:14.885Z,1013.14
2018-07-31T06:10:14.873Z,1013.12
2018-07-31T06:11:14.899Z,1013.16
2018-07-31T06:12:14.851Z,1013.17
2018-07-31T06:13:14.842Z,1013.18
2018-07-31T06:14:14.829Z,1013.17
2018-07-31T06:15:14.835Z,1013.17
2018-07-31T06:16:14.808Z,1013.14
2018-07-31T06:17:14.797Z,1013.16
2018-07-31T06:18:14.792Z,1013.16
2018-07-31T06:19:14.777Z,1013.17
2018-07-31T06:20:14.769Z,1013.13
2018-07-31T06:21:14.762Z,1013.12
2018-07-31T06:22:14.743Z,1013.06
2018-07-31T06:23:14.736Z,1013.13
2018-07-31T06:24:14.726Z,1013.09
2018-07-31T06:25:14.715Z,1013.12
2018-07-31T06:26:14.704Z,1013.08
2018-07-31T06:27:14.690Z,1013.08
2018-07-31T06:28:14.707Z,1013.07
2018-07-31T06:29:14.679Z,1013.12
2018-07-31T06:30:14.660Z,1013.13
2018-07-31T06:31:14.652Z,1013.11
2018-07-31T06:32:14.646Z,1013.15
2018-07-31T06:33:14.628Z,1013.15
2018-07-31T06:34:14.621Z,1013.14
2018-07-31T06:35:14.606Z,1013.15
2018-07-31T06:36:14.599Z,1013.15
2018-07-31T06:37:14.590Z,1013.14
2018-07-31T06:38:14.587Z,1013.15
2018-07-31T06:39:14.571Z,1013.15
2018-07-31T06:40:14.556Z,1013.14
2018-07-31T06:41:14.545Z,1013.18
2018-07-31T06:42:14.536Z,1013.18
2018-07-31T06:43:14.524Z,1013.21
2018-07-31T06:44:14.514Z,1013.19
2018-07-31T06:45:14.503Z,1013.20
2018-07-31T06:46:14.492Z,1013.20
2018-07-31T06:47:14.484Z,1013.19
2018-07-31T06:48:14.473Z,1013.24
2018-07-31T06:49:14.464Z,1013.20
2018-07-31T06:50:14.464Z,1013.25
2018-07-31T06:51:14.442Z,1013.24
2018-07-31T06:52:14.433Z,1013.26
2018-07-31T06:53:14.422Z,1013.29
2018-07-31T06:54:14.417Z,1013.26
2018-07-31T06:55:14.408Z,1013.27
2018-07-31T06:56:14.396Z,1013.31
2018-07-31T06:57:14.385Z,1013.26
2018-07-31T06:58:14.383Z,1013.27
2018-07-31T06:59:14.365Z,1013.28
2018-07-31T07:00:14.355Z,1013.27
2018-07-31T07:01:14.346Z,1013.21
2018-07-31T07:02:14.360Z,1013.27
2018-07-31T07:03:14.327Z,1013.26
2018-07-31T07:04:14.318Z,1013.25
2018-07-31T07:05:14.308Z,1013.21
2018-07-31T07:06:14.300Z,1013.21
2018-07-31T07:07:14.289Z,1013.23
2018-07-31T07:08:14.282Z,1013.20
2018-07-31T07:09:14.328Z,1013.18
2018-07-31T07:10:14.264Z,1013.21
2018-07-31T07:11:14.255Z,1013.23
2018-07-31T07:12:14.245Z,1013.21
2018-07-31T07:13:14.234Z,1013.23
2018-07-31T07:14:14.239Z,1013.23
2018-07-31T07:15:14.220Z,1013.22
2018-07-31T07:16:14.213Z,1013.24
2018-07-31T07:17:14.199Z,1013.26
2018-07-31T07:18:14.191Z,1013.24
2018-07-31T07:19:14.186Z,1013.23
2018-07-31T07:20:14.181Z,1013.24
2018-07-31T07:21:14.164Z,1013.25
2018-07-31T07:22:14.156Z,1013.26
2018-07-31T07:23:14.146Z,1013.26
2018-07-31T07:24:14.138Z,1013.24
2018-07-31T07:25:14.130Z,1013.25
2018-07-31T07:26:14.121Z,1013.28
2018-07-31T07:27:14.115Z,1013.28
2018-07-31T07:28:14.108Z,1013.27
2018-07-31T07:29:14.100Z,1013.28
2018-07-31T07:30:14.088Z,1013.27
2018-07-31T07:31:14.079Z,1013.29
2018-07-31T07:32:14.071Z,1013.25
2018-07-31T07:33:14.065Z,1013.29
2018-07-31T07:34:14.056Z,1013.26
2018-07-31T07:35:14.048Z,1013.28
2018-07-31T07:36:14.041Z,1013.26
2018-07-31T07:37:14.029Z,1013.35
2018-07-31T07:38:14.022Z,1013.29
2018-07-31T07:39:14.014Z,1013.29
2018-07-31T07:40:14.054Z,1013.29
2018-07-31T07:41:14.001Z,1013.30
2018-07-31T07:42:13.992Z,1013.29
2018-07-31T07:43:13.986Z,1013.32
2018-07-31T07:44:13.976Z,1013.34
2018-07-31T07:45:13.972Z,1013.32
2018-07-31T07:46:13.964Z,1013.35
2018-07-31T07:47:13.955Z,1013.36
2018-07-31T07:48:13.947Z,1013.37
2018-07-31T07:49:13.944Z,1015.16
2018-07-31T07:50:13.937Z,1021.60
2018-07-31T07:51:13.925Z,1029.17
2018-07-31T07:52:13.917Z,1034.98
2018-07-31T07:53:13.909Z,1037.14
2018-07-31T07:54:14.079Z,1036.56
2018-07-31T07:55:13.900Z,1035.38
2018-07-31T07:56:13.891Z,1033.53
2018-07-31T07:57:13.913Z,1032.60
2018-07-31T07:58:13.878Z,1032.97
2018-07-31T07:59:13.874Z,1032.95
2018-07-31T08:00:13.887Z,1032.06
2018-07-31T08:01:13.861Z,1032.52
2018-07-31T08:02:13.861Z,1033.69
2018-07-31T08:03:13.901Z,1029.16
2018-07-31T08:04:13.871Z,1023.60
2018-07-31T08:05:13.853Z,1022.74
2018-07-31T08:06:13.843Z,1023.95
2018-07-31T08:07:13.834Z,1025.74
2018-07-31T08:08:13.834Z,1027.41
2018-07-31T08:09:13.829Z,1027.40
2018-07-31T08:10:13.822Z,1027.04
2018-07-31T08:11:13.822Z,1027.34
2018-07-31T08:12:13.819Z,1027.17
2018-07-31T08:13:13.816Z,1026.02
2018-07-31T08:14:13.815Z,1025.22
2018-07-31T08:15:13.804Z,1024.14
2018-07-31T08:16:13.802Z,1023.16
2018-07-31T08:17:13.800Z,1023.09
2018-07-31T08:18:13.805Z,1023.20
2018-07-31T08:19:13.794Z,1023.61
2018-07-31T08:20:13.825Z,1023.79
2018-07-31T08:21:13.788Z,1022.67
2018-07-31T08:22:13.785Z,1022.00
2018-07-31T08:23:13.784Z,1021.21
2018-07-31T08:24:13.782Z,1020.84
2018-07-31T08:25:13.780Z,1020.35
2018-07-31T08:26:13.778Z,1020.42
2018-07-31T08:27:13.774Z,1020.00
2018-07-31T08:28:13.780Z,1019.26
2018-07-31T08:29:13.771Z,1018.38
2018-07-31T08:30:13.774Z,1017.86
2018-07-31T08:31:13.795Z,1017.49
2018-07-31T08:32:13.770Z,1017.18
2018-07-31T08:33:13.777Z,1016.76
2018-07-31T08:34:13.762Z,1016.62
2018-07-31T08:35:13.770Z,1016.49
2018-07-31T08:36:13.764Z,1016.26
2018-07-31T08:37:13.756Z,1016.03
2018-07-31T08:38:13.758Z,1015.96
2018-07-31T08:39:13.760Z,1015.80
2018-07-31T08:40:13.755Z,1015.66
2018-07-31T08:41:13.765Z,1015.56
2018-07-31T08:42:13.758Z,1015.46
2018-07-31T08:43:13.752Z,1015.33
2018-07-31T08:44:13.754Z,1015.25
2018-07-31T08:45:13.751Z,1015.25
2018-07-31T08:46:13.752Z,1015.22
2018-07-31T08:47:13.748Z,1015.17
2018-07-31T08:48:13.752Z,1015.16
2018-07-31T08:49:13.747Z,1015.23
2018-07-31T08:50:13.748Z,1015.21
2018-07-31T08:51:13.777Z,1015.13
2018-07-31T08:52:13.746Z,1015.04
2018-07-31T08:53:13.746Z,1014.99
2018-07-31T08:54:13.746Z,1014.90
2018-07-31T08:55:13.750Z,1014.90
2018-07-31T08:56:13.744Z,1014.96
2018-07-31T08:57:13.743Z,1014.98
2018-07-31T08:58:13.742Z,1014.92
2018-07-31T08:59:13.741Z,1014.86
2018-07-31T09:00:13.753Z,1014.75
2018-07-31T09:01:13.741Z,1014.70
2018-07-31T09:02:13.792Z,1014.62
2018-07-31T09:03:13.744Z,1014.60
2018-07-31T09:04:13.750Z,1014.61
2018-07-31T09:05:13.742Z,1014.67
2018-07-31T09:06:13.741Z,1014.61
2018-07-31T09:07:13.744Z,1014.58
2018-07-31T09:08:13.800Z,1014.55
2018-07-31T09:09:13.742Z,1014.55
2018-07-31T09:10:13.743Z,1014.55
2018-07-31T09:11:13.751Z,1014.50
2018-07-31T09:12:13.745Z,1014.46
2018-07-31T09:13:13.743Z,1014.37
2018-07-31T09:14:13.745Z,1014.36
2018-07-31T09:15:13.745Z,1014.34
2018-07-31T09:16:13.748Z,1014.32
2018-07-31T09:17:13.746Z,1014.30
2018-07-31T09:18:13.745Z,1014.26
2018-07-31T09:19:13.749Z,1014.22
2018-07-31T09:20:13.746Z,1014.19
2018-07-31T09:21:13.749Z,1014.21
2018-07-31T09:22:13.752Z,1014.18
2018-07-31T09:23:13.750Z,1014.14
2018-07-31T09:24:13.753Z,1014.07
2018-07-31T09:25:13.750Z,1013.94
2018-07-31T09:26:13.759Z,1013.85
2018-07-31T09:27:13.751Z,1013.82
2018-07-31T09:28:13.751Z,1013.73
2018-07-31T09:29:13.756Z,1013.70
2018-07-31T09:30:13.767Z,1013.65
2018-07-31T09:31:13.758Z,1013.67
2018-07-31T09:32:13.760Z,1013.63
2018-07-31T09:33:13.755Z,1013.60
2018-07-31T09:34:13.757Z,1013.57
2018-07-31T09:35:13.762Z,1013.61
2018-07-31T09:36:13.760Z,1013.57
2018-07-31T09:37:13.765Z,1013.58
2018-07-31T09:38:13.763Z,1013.56
2018-07-31T09:39:13.767Z,1013.55
2018-07-31T09:40:13.765Z,1013.56
2018-07-31T09:41:13.767Z,1013.62
2018-07-31T09:42:13.768Z,1013.58
2018-07-31T09:43:13.777Z,1013.57
2018-07-31T09:44:13.773Z,1013.58
2018-07-31T09:45:13.772Z,1013.61
2018-07-31T09:46:13.779Z,1013.58
2018-07-31T09:47:13.775Z,1013.59
2018-07-31T09:48:13.776Z,1013.58
2018-07-31T09:49:13.777Z,1013.59
2018-07-31T09:50:13.783Z,1013.58
2018-07-31T09:51:13.781Z,1013.59
2018-07-31T09:52:13.789Z,1013.57
2018-07-31T09:53:13.784Z,1013.61
2018-07-31T09:54:13.788Z,1013.56
2018-07-31T09:55:13.789Z,1013.56
2018-07-31T09:56:13.792Z,1013.58
2018-07-31T09:57:13.844Z,1013.55
2018-07-31T09:58:13.793Z,1013.54
2018-07-31T09:59:13.862Z,1013.57
2018-07-31T10:00:13.800Z,1013.49
2018-07-31T10:01:13.800Z,1013.51
2018-07-31T10:02:13.805Z,1013.51
2018-07-31T10:03:13.804Z,1013.53
2018-07-31T10:04:13.805Z,1013.52
2018-07-31T10:05:13.813Z,1013.52
2018-07-31T10:06:13.812Z,1013.51
2018-07-31T10:07:13.817Z,1013.52
2018-07-31T10:08:13.827Z,1013.50
2018-07-31T10:09:13.822Z,1013.50
2018-07-31T10:10:13.824Z,1013.50
2018-07-31T10:11:13.822Z,1013.51
2018-07-31T10:12:13.854Z,1013.47
2018-07-31T10:13:13.828Z,1013.42
2018-07-31T10:14:13.830Z,1013.37
2018-07-31T10:15:13.832Z,1013.38
2018-07-31T10:16:13.845Z,1013.34
2018-07-31T10:17:13.837Z,1013.39
2018-07-31T10:18:13.860Z,1013.36
2018-07-31T10:19:13.842Z,1013.38
2018-07-31T10:20:13.846Z,1013.40
2018-07-31T10:21:13.853Z,1013.36
2018-07-31T10:22:13.852Z,1013.40
2018-07-31T10:23:13.856Z,1013.37
2018-07-31T10:24:13.905Z,1013.32
2018-07-31T10:25:13.860Z,1013.33
2018-07-31T10:26:13.864Z,1013.33
2018-07-31T10:27:13.867Z,1013.35
2018-07-31T10:28:13.873Z,1013.33
2018-07-31T10:29:13.872Z,1013.26
2018-07-31T10:30:13.887Z,1013.33
2018-07-31T10:31:13.880Z,1013.37
2018-07-31T10:32:13.883Z,1013.41
2018-07-31T10:33:13.886Z,1013.40
2018-07-31T10:34:13.892Z,1013.40
2018-07-31T10:35:13.901Z,1013.43
2018-07-31T10:36:13.897Z,1013.43
2018-07-31T10:37:13.904Z,1013.45
2018-07-31T10:38:13.905Z,1013.43
2018-07-31T10:39:13.910Z,1013.43
2018-07-31T10:40:13.910Z,1013.44
2018-07-31T10:41:13.914Z,1013.39
2018-07-31T10:42:13.926Z,1013.40
2018-07-31T10:43:13.928Z,1013.42
2018-07-31T10:44:13.927Z,1013.41
2018-07-31T10:45:13.928Z,1013.45
2018-07-31T10:46:13.933Z,1013.37
2018-07-31T10:47:13.940Z,1013.39
2018-07-31T10:48:13.945Z,1013.41
2018-07-31T10:49:13.948Z,1013.35
2018-07-31T10:50:13.949Z,1013.37
2018-07-31T10:51:14.056Z,1013.37
2018-07-31T10:52:13.955Z,1013.42
2018-07-31T10:53:13.961Z,1013.36
2018-07-31T10:54:13.965Z,1013.39
2018-07-31T10:55:13.970Z,1013.41
2018-07-31T10:56:13.978Z,1013.37
2018-07-31T10:57:13.977Z,1013.35
2018-07-31T10:58:14.060Z,1013.30
2018-07-31T10:59:13.984Z,1013.24
2018-07-31T11:00:14.016Z,1013.33
2018-07-31T11:01:13.995Z,1013.32
2018-07-31T11:02:13.999Z,1013.29
2018-07-31T11:03:14.053Z,1013.27
2018-07-31T11:04:14.095Z,1013.18
2018-07-31T11:05:14.012Z,1013.29
2018-07-31T11:06:14.047Z,1013.33
2018-07-31T11:07:14.027Z,1013.39
2018-07-31T11:08:14.028Z,1013.34
2018-07-31T11:09:14.033Z,1013.35
2018-07-31T11:10:14.035Z,1013.54
2018-07-31T11:11:14.043Z,1013.77
2018-07-31T11:12:14.046Z,1013.92
2018-07-31T11:13:14.097Z,1013.86
2018-07-31T11:14:14.063Z,1013.90
2018-07-31T11:15:14.064Z,1013.91
2018-07-31T11:16:14.067Z,1013.88
2018-07-31T11:17:14.082Z,1013.84
2018-07-31T11:18:14.075Z,1013.74
2018-07-31T11:19:14.081Z,1013.77
2018-07-31T11:20:14.089Z,1013.77
2018-07-31T11:21:14.114Z,1013.71
2018-07-31T11:22:14.099Z,1013.71
2018-07-31T11:23:14.104Z,1013.69
2018-07-31T11:24:14.109Z,1013.74
2018-07-31T11:25:14.114Z,1013.76
2018-07-31T11:26:14.119Z,1013.77
2018-07-31T11:27:14.129Z,1013.70
2018-07-31T11:28:14.132Z,1013.70
2018-07-31T11:29:14.137Z,1013.73
2018-07-31T11:30:14.144Z,1013.62
2018-07-31T11:31:14.152Z,1013.61
2018-07-31T11:32:14.154Z,1013.62
2018-07-31T11:33:14.161Z,1013.59
2018-07-31T11:34:14.167Z,1013.59
2018-07-31T11:35:14.175Z,1013.63
2018-07-31T11:36:14.179Z,1013.63
2018-07-31T11:37:14.193Z,1013.63
2018-07-31T11:38:14.193Z,1013.60
2018-07-31T11:39:14.196Z,1013.61
2018-07-31T11:40:14.202Z,1013.51
2018-07-31T11:41:14.208Z,1013.52
2018-07-31T11:42:14.214Z,1013.49
2018-07-31T11:43:14.227Z,1013.52
2018-07-31T11:44:14.227Z,1013.46
2018-07-31T11:45:14.231Z,1013.47
2018-07-31T11:46:14.239Z,1013.46
2018-07-31T11:47:14.259Z,1013.41
2018-07-31T11:48:14.251Z,1013.49
2018-07-31T11:49:14.263Z,1013.52
2018-07-31T11:50:14.314Z,1013.46
2018-07-31T11:51:14.269Z,1013.46
2018-07-31T11:52:14.276Z,1013.40
2018-07-31T11:53:14.282Z,1013.38
2018-07-31T11:54:14.293Z,1013.36
2018-07-31T11:55:14.295Z,1013.39
2018-07-31T11:56:14.301Z,1013.39
2018-07-31T11:57:14.306Z,1013.40
2018-07-31T11:58:14.312Z,1013.37
2018-07-31T11:59:14.320Z,1013.33
2018-07-31T12:00:14.328Z,1013.32
2018-07-31T12:01:14.331Z,1013.32
2018-07-31T12:02:14.338Z,1013.15
2018-07-31T12:03:14.347Z,1012.96
2018-07-31T12:04:14.366Z,1012.94
2018-07-31T12:05:14.355Z,1012.80